logo tempoitalia

Diretta Meteo Annecy-Meythet, Francialunedì 31 agosto ore 07:00

Mappa
Sereno 18 °C Pioggia 24 Ore: T.min 16 T.max 29
Ponente Nord Km/h 0 Punto di rugiada: 18 °C Umidità: 100% Visibilità: 10 Km
Il sole sorge alle: 06:55 Il sole tramonta alle: 20:16
31 Agosto 2026 07:00 tempo osservato: Pioggia Pioggia 18 100 1020 vento: Nord N 0
31 Agosto 2026 06:30 tempo osservato: Sereno Sereno 18 100 1020 vento: Nord N 0
31 Agosto 2026 06:00 tempo osservato: Sereno Sereno 18 93 1020 vento: Nord N 0
31 Agosto 2026 05:30 tempo osservato: Sereno Sereno 18 100 1020 vento: Nord N 3.7
31 Agosto 2026 05:00 tempo osservato: Sereno Sereno 18 100 1020 vento: Nord N 0
31 Agosto 2026 04:30 tempo osservato: Sereno Sereno 18 93 1020 vento: Nord N 3.7
31 Agosto 2026 04:00 tempo osservato: Pioggia Pioggia 19 88 1019 vento: Nord N 3.7
31 Agosto 2026 03:30 tempo osservato: Pioggia Pioggia 19 88 1020 vento: Nord N 3.7
31 Agosto 2026 03:00 tempo osservato: Molto Nuvoloso Molto Nuvoloso 19 88 1019 vento: Nord N/NO 9.3
31 Agosto 2026 02:30 tempo osservato: Pioggia Pioggia 20 82 1019 vento: Nord NO 18.5
31 Agosto 2026 02:00 tempo osservato: Sereno Sereno 21 68 1019 vento: Nord NO 14.8
31 Agosto 2026 01:30 tempo osservato: Sereno Sereno 20 77 1018 vento: Nord N 5.5
31 Agosto 2026 01:00 tempo osservato: Sereno Sereno 20 77 1018 vento: Nord NO 7.4
31 Agosto 2026 00:30 tempo osservato: Sereno Sereno 20 72 1018 vento: Nord N 5.5
31 Agosto 2026 00:00 tempo osservato: Sereno Sereno 21 68 1017 vento: Nord N 5.5
30 Agosto 2026 23:30 tempo osservato: Sereno Sereno 21 68 1017 vento: Nord N 5.5
30 Agosto 2026 23:00 tempo osservato: Sereno Sereno 20 77 1017 vento: Nord N 5.5
30 Agosto 2026 22:30 tempo osservato: Sereno Sereno 21 68 1016 vento: Nord N 5.5
30 Agosto 2026 22:00 tempo osservato: Sereno Sereno 22 64 1016 vento: Nord N/NE 7.4
30 Agosto 2026 21:30 tempo osservato: Sereno Sereno 22 60 1016 vento: Nord N 5.5
30 Agosto 2026 21:00 tempo osservato: Sereno Sereno 21 68 1016 vento: Nord N/NE 7.4
30 Agosto 2026 20:30 tempo osservato: Sereno Sereno 23 60 1015 vento: Nord N 5.5
30 Agosto 2026 20:00 tempo osservato: Sereno Sereno 25 50 1015 vento: Nord N 3.7
30 Agosto 2026 19:30 tempo osservato: Sereno Sereno 26 50 1015 vento: Nord N 5.5
30 Agosto 2026 19:00 tempo osservato: Sereno Sereno 28 42 1015 vento: Nord S/SO 7.4
30 Agosto 2026 18:30 tempo osservato: Sereno Sereno 29 37 1015 vento: Nord SO 7.4
30 Agosto 2026 18:00 tempo osservato: Sereno Sereno 29 37 1015 vento: Nord S/SO 11.1
30 Agosto 2026 17:30 tempo osservato: Sereno Sereno 29 39 1015 vento: Nord S 14.8
30 Agosto 2026 17:00 tempo osservato: Sereno Sereno 29 35 1016 vento: Nord SO 11.1
30 Agosto 2026 16:30 tempo osservato: Sereno Sereno 29 39 1016 vento: Nord SO 13
30 Agosto 2026 16:00 tempo osservato: Sereno Sereno 29 39 1016 vento: Nord SO 13
30 Agosto 2026 15:30 tempo osservato: Sereno Sereno 29 39 1016 vento: Nord N 7.4
30 Agosto 2026 15:00 tempo osservato: Sereno Sereno 28 42 1017 vento: Nord N 5.5
30 Agosto 2026 14:30 tempo osservato: Sereno Sereno 28 45 1017 vento: Nord N 9.3
30 Agosto 2026 14:00 tempo osservato: Sereno Sereno 27 42 1017 vento: Nord S 9.3
30 Agosto 2026 13:30 tempo osservato: Sereno Sereno 27 42 1017 vento: Nord N 7.4
30 Agosto 2026 13:00 tempo osservato: Sereno Sereno 27 44 1017 vento: Nord N 5.5
30 Agosto 2026 12:30 tempo osservato: Sereno Sereno 26 44 1018 vento: Nord N 5.5
30 Agosto 2026 12:00 tempo osservato: Sereno Sereno 25 47 1018 vento: Nord N 3.7
30 Agosto 2026 11:30 tempo osservato: Sereno Sereno 24 50 1018 vento: Nord N 3.7
30 Agosto 2026 11:00 tempo osservato: Sereno Sereno 23 53 1019 vento: Nord N 3.7
30 Agosto 2026 10:30 tempo osservato: Sereno Sereno 22 56 1019 vento: Nord N 3.7
30 Agosto 2026 10:00 tempo osservato: Sereno Sereno 21 64 1019 vento: Nord N 5.5
30 Agosto 2026 09:30 tempo osservato: Sereno Sereno 20 64 1019 vento: Nord N 5.5
30 Agosto 2026 09:00 tempo osservato: Sereno Sereno 19 72 1019 vento: Nord N 5.5
30 Agosto 2026 08:30 tempo osservato: Sereno Sereno 17 77 1019 vento: Nord N/NE 7.4
30 Agosto 2026 08:00 tempo osservato: Sereno Sereno 16 82 1019 vento: Nord N 5.5